sensor_id;sensor_type;location;lat;lon;timestamp;temperature;humidity
12164;DHT22;6145;50.192;10.064;2023-07-29T00:00:43;20.70;97.00
12164;DHT22;6145;50.192;10.064;2023-07-29T00:03:12;20.80;97.00
12164;DHT22;6145;50.192;10.064;2023-07-29T00:05:40;21.50;97.40
12164;DHT22;6145;50.192;10.064;2023-07-29T00:08:07;21.70;97.50
12164;DHT22;6145;50.192;10.064;2023-07-29T00:10:37;21.80;97.60
12164;DHT22;6145;50.192;10.064;2023-07-29T00:13:07;20.70;97.10
12164;DHT22;6145;50.192;10.064;2023-07-29T00:15:34;20.70;97.00
12164;DHT22;6145;50.192;10.064;2023-07-29T00:18:01;21.70;97.50
12164;DHT22;6145;50.192;10.064;2023-07-29T00:20:29;21.40;97.50
12164;DHT22;6145;50.192;10.064;2023-07-29T00:23:04;20.60;97.20
12164;DHT22;6145;50.192;10.064;2023-07-29T00:25:31;20.60;97.00
12164;DHT22;6145;50.192;10.064;2023-07-29T00:27:58;19.80;96.90
12164;DHT22;6145;50.192;10.064;2023-07-29T00:30:28;21.70;97.80
12164;DHT22;6145;50.192;10.064;2023-07-29T00:32:57;20.50;97.40
12164;DHT22;6145;50.192;10.064;2023-07-29T00:35:24;20.50;97.50
12164;DHT22;6145;50.192;10.064;2023-07-29T00:37:52;20.60;97.30
12164;DHT22;6145;50.192;10.064;2023-07-29T00:40:22;20.60;97.30
12164;DHT22;6145;50.192;10.064;2023-07-29T00:42:52;20.60;97.20
12164;DHT22;6145;50.192;10.064;2023-07-29T00:45:19;20.60;97.30
12164;DHT22;6145;50.192;10.064;2023-07-29T00:47:47;20.50;97.30
12164;DHT22;6145;50.192;10.064;2023-07-29T00:50:16;20.50;97.40
12164;DHT22;6145;50.192;10.064;2023-07-29T00:52:44;20.90;97.60
12164;DHT22;6145;50.192;10.064;2023-07-29T00:55:12;20.50;97.50
12164;DHT22;6145;50.192;10.064;2023-07-29T00:57:39;20.70;97.60
12164;DHT22;6145;50.192;10.064;2023-07-29T01:00:07;20.60;97.70
12164;DHT22;6145;50.192;10.064;2023-07-29T01:02:35;20.40;97.60
12164;DHT22;6145;50.192;10.064;2023-07-29T01:05:02;20.40;97.50
12164;DHT22;6145;50.192;10.064;2023-07-29T01:07:33;20.40;97.50
12164;DHT22;6145;50.192;10.064;2023-07-29T01:10:07;20.50;97.50
12164;DHT22;6145;50.192;10.064;2023-07-29T01:12:51;20.40;97.50
12164;DHT22;6145;50.192;10.064;2023-07-29T01:15:23;20.50;97.50
12164;DHT22;6145;50.192;10.064;2023-07-29T01:17:54;20.40;97.40
12164;DHT22;6145;50.192;10.064;2023-07-29T01:20:23;20.40;97.40
12164;DHT22;6145;50.192;10.064;2023-07-29T01:22:51;20.40;97.40
12164;DHT22;6145;50.192;10.064;2023-07-29T01:25:19;20.30;97.40
12164;DHT22;6145;50.192;10.064;2023-07-29T01:27:48;20.30;97.40
12164;DHT22;6145;50.192;10.064;2023-07-29T01:30:17;20.40;97.50
12164;DHT22;6145;50.192;10.064;2023-07-29T01:32:51;20.30;97.40
12164;DHT22;6145;50.192;10.064;2023-07-29T01:35:23;20.40;97.50
12164;DHT22;6145;50.192;10.064;2023-07-29T01:37:53;20.40;97.60
12164;DHT22;6145;50.192;10.064;2023-07-29T01:40:26;20.80;97.70
12164;DHT22;6145;50.192;10.064;2023-07-29T01:42:54;20.40;97.60
12164;DHT22;6145;50.192;10.064;2023-07-29T01:45:23;20.40;97.50
12164;DHT22;6145;50.192;10.064;2023-07-29T01:47:51;20.40;97.80
12164;DHT22;6145;50.192;10.064;2023-07-29T01:50:20;20.40;97.40
12164;DHT22;6145;50.192;10.064;2023-07-29T01:52:47;20.50;97.30
12164;DHT22;6145;50.192;10.064;2023-07-29T01:55:14;21.10;97.50
12164;DHT22;6145;50.192;10.064;2023-07-29T01:57:42;20.30;97.20
12164;DHT22;6145;50.192;10.064;2023-07-29T02:00:11;20.30;97.30
12164;DHT22;6145;50.192;10.064;2023-07-29T02:02:38;20.30;97.20
12164;DHT22;6145;50.192;10.064;2023-07-29T02:05:05;20.40;97.20
12164;DHT22;6145;50.192;10.064;2023-07-29T02:07:32;20.40;97.20
12164;DHT22;6145;50.192;10.064;2023-07-29T02:09:59;20.30;97.00
12164;DHT22;6145;50.192;10.064;2023-07-29T02:12:27;20.40;97.00
12164;DHT22;6145;50.192;10.064;2023-07-29T02:14:55;20.50;97.00
12164;DHT22;6145;50.192;10.064;2023-07-29T02:17:22;20.40;97.00
12164;DHT22;6145;50.192;10.064;2023-07-29T02:19:49;20.30;96.80
12164;DHT22;6145;50.192;10.064;2023-07-29T02:22:16;20.30;96.80
12164;DHT22;6145;50.192;10.064;2023-07-29T02:24:43;20.30;96.90
12164;DHT22;6145;50.192;10.064;2023-07-29T02:27:13;20.20;96.80
12164;DHT22;6145;50.192;10.064;2023-07-29T02:29:40;20.20;96.70
12164;DHT22;6145;50.192;10.064;2023-07-29T02:32:08;20.40;96.70
12164;DHT22;6145;50.192;10.064;2023-07-29T02:34:35;20.30;96.70
12164;DHT22;6145;50.192;10.064;2023-07-29T02:37:02;20.20;96.70
12164;DHT22;6145;50.192;10.064;2023-07-29T02:39:29;20.20;96.70
12164;DHT22;6145;50.192;10.064;2023-07-29T02:41:56;20.20;96.80
12164;DHT22;6145;50.192;10.064;2023-07-29T02:44:24;20.10;96.80
12164;DHT22;6145;50.192;10.064;2023-07-29T02:46:51;20.00;96.90
12164;DHT22;6145;50.192;10.064;2023-07-29T02:49:21;20.00;97.20
12164;DHT22;6145;50.192;10.064;2023-07-29T02:51:48;20.00;97.20
12164;DHT22;6145;50.192;10.064;2023-07-29T02:54:15;20.10;97.40
12164;DHT22;6145;50.192;10.064;2023-07-29T02:56:42;20.00;97.40
12164;DHT22;6145;50.192;10.064;2023-07-29T02:59:09;20.00;97.40
12164;DHT22;6145;50.192;10.064;2023-07-29T03:01:36;20.00;97.40
12164;DHT22;6145;50.192;10.064;2023-07-29T03:04:03;20.20;97.60
12164;DHT22;6145;50.192;10.064;2023-07-29T03:06:31;19.90;97.60
12164;DHT22;6145;50.192;10.064;2023-07-29T03:08:58;19.80;97.60
12164;DHT22;6145;50.192;10.064;2023-07-29T03:11:25;19.80;97.80
12164;DHT22;6145;50.192;10.064;2023-07-29T03:13:52;19.80;97.90
12164;DHT22;6145;50.192;10.064;2023-07-29T03:16:18;19.70;98.10
12164;DHT22;6145;50.192;10.064;2023-07-29T03:18:48;19.70;98.30
12164;DHT22;6145;50.192;10.064;2023-07-29T03:21:15;19.70;98.50
12164;DHT22;6145;50.192;10.064;2023-07-29T03:23:43;19.70;98.50
12164;DHT22;6145;50.192;10.064;2023-07-29T03:26:10;19.70;98.50
12164;DHT22;6145;50.192;10.064;2023-07-29T03:28:39;19.70;98.50
12164;DHT22;6145;50.192;10.064;2023-07-29T03:31:06;19.80;98.80
12164;DHT22;6145;50.192;10.064;2023-07-29T03:33:33;19.90;98.60
12164;DHT22;6145;50.192;10.064;2023-07-29T03:36:00;20.10;98.50
12164;DHT22;6145;50.192;10.064;2023-07-29T03:38:29;20.70;98.80
12164;DHT22;6145;50.192;10.064;2023-07-29T03:40:59;19.80;98.40
12164;DHT22;6145;50.192;10.064;2023-07-29T03:43:27;19.90;98.40
12164;DHT22;6145;50.192;10.064;2023-07-29T03:45:55;19.80;98.30
12164;DHT22;6145;50.192;10.064;2023-07-29T03:48:22;19.90;98.20
12164;DHT22;6145;50.192;10.064;2023-07-29T03:50:49;19.80;98.20
12164;DHT22;6145;50.192;10.064;2023-07-29T03:53:16;19.80;98.10
12164;DHT22;6145;50.192;10.064;2023-07-29T03:55:43;19.80;98.30
12164;DHT22;6145;50.192;10.064;2023-07-29T03:58:14;19.80;98.40
12164;DHT22;6145;50.192;10.064;2023-07-29T04:00:41;20.20;98.60
12164;DHT22;6145;50.192;10.064;2023-07-29T04:03:08;19.70;98.40
12164;DHT22;6145;50.192;10.064;2023-07-29T04:05:35;19.80;98.50
12164;DHT22;6145;50.192;10.064;2023-07-29T04:08:03;19.70;98.50
12164;DHT22;6145;50.192;10.064;2023-07-29T04:10:41;19.70;98.70
12164;DHT22;6145;50.192;10.064;2023-07-29T04:13:08;19.80;98.70
12164;DHT22;6145;50.192;10.064;2023-07-29T04:15:36;19.80;98.90
12164;DHT22;6145;50.192;10.064;2023-07-29T04:18:03;19.30;98.80
12164;DHT22;6145;50.192;10.064;2023-07-29T04:20:30;19.80;99.00
12164;DHT22;6145;50.192;10.064;2023-07-29T04:22:57;19.80;99.10
12164;DHT22;6145;50.192;10.064;2023-07-29T04:25:24;20.60;99.50
12164;DHT22;6145;50.192;10.064;2023-07-29T04:27:51;20.10;99.70
12164;DHT22;6145;50.192;10.064;2023-07-29T04:30:18;20.70;99.60
12164;DHT22;6145;50.192;10.064;2023-07-29T04:35:51;19.80;99.40
12164;DHT22;6145;50.192;10.064;2023-07-29T04:38:23;19.90;99.50
12164;DHT22;6145;50.192;10.064;2023-07-29T04:41:08;19.80;99.40
12164;DHT22;6145;50.192;10.064;2023-07-29T04:44:24;19.90;99.40
12164;DHT22;6145;50.192;10.064;2023-07-29T04:53:56;19.80;99.60
12164;DHT22;6145;50.192;10.064;2023-07-29T04:56:22;19.80;99.60
12164;DHT22;6145;50.192;10.064;2023-07-29T04:58:49;19.80;99.60
12164;DHT22;6145;50.192;10.064;2023-07-29T05:01:17;19.80;99.60
12164;DHT22;6145;50.192;10.064;2023-07-29T05:03:50;19.70;99.80
12164;DHT22;6145;50.192;10.064;2023-07-29T05:06:36;17.20;98.80
12164;DHT22;6145;50.192;10.064;2023-07-29T05:09:18;19.80;99.90
12164;DHT22;6145;50.192;10.064;2023-07-29T05:11:56;19.80;99.90
12164;DHT22;6145;50.192;10.064;2023-07-29T05:14:24;19.80;99.90
12164;DHT22;6145;50.192;10.064;2023-07-29T05:16:52;20.00;99.90
12164;DHT22;6145;50.192;10.064;2023-07-29T05:19:19;19.70;99.90
12164;DHT22;6145;50.192;10.064;2023-07-29T05:21:49;18.50;99.90
12164;DHT22;6145;50.192;10.064;2023-07-29T05:24:18;19.70;99.90
12164;DHT22;6145;50.192;10.064;2023-07-29T05:26:45;19.70;99.90
12164;DHT22;6145;50.192;10.064;2023-07-29T05:29:12;19.80;99.90
12164;DHT22;6145;50.192;10.064;2023-07-29T05:31:39;19.80;99.90
12164;DHT22;6145;50.192;10.064;2023-07-29T05:34:08;20.70;99.90
12164;DHT22;6145;50.192;10.064;2023-07-29T05:36:38;19.80;99.90
12164;DHT22;6145;50.192;10.064;2023-07-29T05:39:05;19.70;99.90
12164;DHT22;6145;50.192;10.064;2023-07-29T05:41:34;19.80;99.90
12164;DHT22;6145;50.192;10.064;2023-07-29T05:44:04;20.10;99.90
12164;DHT22;6145;50.192;10.064;2023-07-29T05:46:31;19.80;99.90
12164;DHT22;6145;50.192;10.064;2023-07-29T05:48:58;19.80;99.90
12164;DHT22;6145;50.192;10.064;2023-07-29T05:51:31;20.30;99.90
12164;DHT22;6145;50.192;10.064;2023-07-29T05:54:01;19.80;99.90
12164;DHT22;6145;50.192;10.064;2023-07-29T05:56:32;21.30;99.90
12164;DHT22;6145;50.192;10.064;2023-07-29T06:10:36;19.80;99.90
12164;DHT22;6145;50.192;10.064;2023-07-29T06:13:40;19.80;99.90
12164;DHT22;6145;50.192;10.064;2023-07-29T06:24:15;19.90;99.90
12164;DHT22;6145;50.192;10.064;2023-07-29T06:27:05;20.00;99.90
12164;DHT22;6145;50.192;10.064;2023-07-29T06:29:42;19.90;99.90
12164;DHT22;6145;50.192;10.064;2023-07-29T06:32:27;20.20;99.90
12164;DHT22;6145;50.192;10.064;2023-07-29T06:38:05;20.00;99.90
12164;DHT22;6145;50.192;10.064;2023-07-29T06:40:33;20.00;99.90
12164;DHT22;6145;50.192;10.064;2023-07-29T06:43:17;20.00;99.90
12164;DHT22;6145;50.192;10.064;2023-07-29T06:59:53;20.20;99.90
12164;DHT22;6145;50.192;10.064;2023-07-29T07:02:38;20.10;99.90
12164;DHT22;6145;50.192;10.064;2023-07-29T07:05:52;20.30;99.90
12164;DHT22;6145;50.192;10.064;2023-07-29T07:08:46;20.50;99.90
12164;DHT22;6145;50.192;10.064;2023-07-29T07:11:43;19.50;99.90
12164;DHT22;6145;50.192;10.064;2023-07-29T07:14:42;20.40;99.90
12164;DHT22;6145;50.192;10.064;2023-07-29T07:17:41;22.10;99.90
12164;DHT22;6145;50.192;10.064;2023-07-29T07:20:49;20.70;99.90
12164;DHT22;6145;50.192;10.064;2023-07-29T07:23:43;20.50;99.90
12164;DHT22;6145;50.192;10.064;2023-07-29T07:26:13;20.50;99.90
12164;DHT22;6145;50.192;10.064;2023-07-29T07:28:53;20.50;99.90
12164;DHT22;6145;50.192;10.064;2023-07-29T07:31:36;20.70;99.90
12164;DHT22;6145;50.192;10.064;2023-07-29T07:34:14;20.60;99.90
12164;DHT22;6145;50.192;10.064;2023-07-29T07:36:43;20.70;99.90
12164;DHT22;6145;50.192;10.064;2023-07-29T07:39:10;20.80;99.90
12164;DHT22;6145;50.192;10.064;2023-07-29T07:41:43;20.60;99.90
12164;DHT22;6145;50.192;10.064;2023-07-29T07:44:14;20.60;99.90
12164;DHT22;6145;50.192;10.064;2023-07-29T07:47:00;20.70;99.90
12164;DHT22;6145;50.192;10.064;2023-07-29T07:49:57;20.60;99.90
12164;DHT22;6145;50.192;10.064;2023-07-29T07:52:44;20.80;99.90
12164;DHT22;6145;50.192;10.064;2023-07-29T08:15:56;21.20;99.90
12164;DHT22;6145;50.192;10.064;2023-07-29T08:18:36;21.30;99.90
12164;DHT22;6145;50.192;10.064;2023-07-29T08:21:20;21.30;99.90
12164;DHT22;6145;50.192;10.064;2023-07-29T08:23:57;20.00;99.90
12164;DHT22;6145;50.192;10.064;2023-07-29T08:29:39;21.40;99.90
12164;DHT22;6145;50.192;10.064;2023-07-29T08:32:11;21.40;99.90
12164;DHT22;6145;50.192;10.064;2023-07-29T08:34:38;21.20;99.90
12164;DHT22;6145;50.192;10.064;2023-07-29T08:37:05;21.30;99.90
12164;DHT22;6145;50.192;10.064;2023-07-29T08:39:32;21.30;99.90
12164;DHT22;6145;50.192;10.064;2023-07-29T08:42:02;21.20;99.90
12164;DHT22;6145;50.192;10.064;2023-07-29T08:44:35;21.20;99.90
12164;DHT22;6145;50.192;10.064;2023-07-29T08:47:04;21.20;99.90
12164;DHT22;6145;50.192;10.064;2023-07-29T08:49:46;21.20;99.90
12164;DHT22;6145;50.192;10.064;2023-07-29T08:52:15;21.50;99.90
12164;DHT22;6145;50.192;10.064;2023-07-29T08:54:45;21.10;99.90
12164;DHT22;6145;50.192;10.064;2023-07-29T08:57:19;21.10;99.90
12164;DHT22;6145;50.192;10.064;2023-07-29T08:59:48;21.10;99.90
12164;DHT22;6145;50.192;10.064;2023-07-29T09:02:15;22.40;99.90
12164;DHT22;6145;50.192;10.064;2023-07-29T09:04:46;21.00;99.90
12164;DHT22;6145;50.192;10.064;2023-07-29T09:07:14;21.00;99.90
12164;DHT22;6145;50.192;10.064;2023-07-29T09:12:55;20.90;99.90
12164;DHT22;6145;50.192;10.064;2023-07-29T09:15:36;22.30;99.90
12164;DHT22;6145;50.192;10.064;2023-07-29T09:18:17;20.90;99.90
12164;DHT22;6145;50.192;10.064;2023-07-29T09:20:50;20.90;99.90
12164;DHT22;6145;50.192;10.064;2023-07-29T09:23:19;21.00;99.90
12164;DHT22;6145;50.192;10.064;2023-07-29T09:25:49;20.80;99.90
12164;DHT22;6145;50.192;10.064;2023-07-29T09:28:16;20.80;99.90
12164;DHT22;6145;50.192;10.064;2023-07-29T09:30:46;20.70;99.90
12164;DHT22;6145;50.192;10.064;2023-07-29T09:33:19;20.80;99.90
12164;DHT22;6145;50.192;10.064;2023-07-29T09:35:56;20.80;99.90
12164;DHT22;6145;50.192;10.064;2023-07-29T09:38:29;20.80;99.90
12164;DHT22;6145;50.192;10.064;2023-07-29T09:40:57;20.70;99.90
12164;DHT22;6145;50.192;10.064;2023-07-29T09:43:25;20.70;99.90
12164;DHT22;6145;50.192;10.064;2023-07-29T09:46:00;20.70;99.90
12164;DHT22;6145;50.192;10.064;2023-07-29T09:48:33;20.80;99.90
12164;DHT22;6145;50.192;10.064;2023-07-29T09:51:09;20.80;99.90
12164;DHT22;6145;50.192;10.064;2023-07-29T09:53:40;22.10;99.90
12164;DHT22;6145;50.192;10.064;2023-07-29T09:56:08;20.90;99.90
12164;DHT22;6145;50.192;10.064;2023-07-29T09:58:35;20.90;99.90
12164;DHT22;6145;50.192;10.064;2023-07-29T10:01:03;20.90;99.90
12164;DHT22;6145;50.192;10.064;2023-07-29T10:03:31;21.60;99.90
12164;DHT22;6145;50.192;10.064;2023-07-29T10:06:01;21.20;99.90
12164;DHT22;6145;50.192;10.064;2023-07-29T10:08:29;21.80;99.90
12164;DHT22;6145;50.192;10.064;2023-07-29T10:10:58;21.40;99.90
12164;DHT22;6145;50.192;10.064;2023-07-29T10:13:26;22.00;99.90
12164;DHT22;6145;50.192;10.064;2023-07-29T10:15:53;21.60;99.90
12164;DHT22;6145;50.192;10.064;2023-07-29T10:18:45;21.90;99.90
12164;DHT22;6145;50.192;10.064;2023-07-29T10:21:15;22.00;99.90
12164;DHT22;6145;50.192;10.064;2023-07-29T10:23:44;22.40;99.90
12164;DHT22;6145;50.192;10.064;2023-07-29T10:26:14;22.40;99.90
12164;DHT22;6145;50.192;10.064;2023-07-29T10:28:47;22.60;99.90
12164;DHT22;6145;50.192;10.064;2023-07-29T10:31:15;22.70;99.90
12164;DHT22;6145;50.192;10.064;2023-07-29T10:33:43;23.00;99.90
12164;DHT22;6145;50.192;10.064;2023-07-29T10:36:10;23.10;99.90
12164;DHT22;6145;50.192;10.064;2023-07-29T10:38:39;23.30;99.90
12164;DHT22;6145;50.192;10.064;2023-07-29T10:41:07;23.50;99.90
12164;DHT22;6145;50.192;10.064;2023-07-29T10:43:35;23.70;99.90
12164;DHT22;6145;50.192;10.064;2023-07-29T10:46:18;23.80;99.90
12164;DHT22;6145;50.192;10.064;2023-07-29T10:48:53;24.00;99.90
12164;DHT22;6145;50.192;10.064;2023-07-29T13:27:35;28.20;69.90
12164;DHT22;6145;50.192;10.064;2023-07-29T13:30:04;28.30;68.30
12164;DHT22;6145;50.192;10.064;2023-07-29T13:32:34;28.20;68.20
12164;DHT22;6145;50.192;10.064;2023-07-29T13:35:01;28.20;68.50
12164;DHT22;6145;50.192;10.064;2023-07-29T13:37:34;28.20;68.50
12164;DHT22;6145;50.192;10.064;2023-07-29T13:40:01;28.20;69.00
12164;DHT22;6145;50.192;10.064;2023-07-29T13:42:29;28.10;68.90
12164;DHT22;6145;50.192;10.064;2023-07-29T13:44:58;28.20;70.50
12164;DHT22;6145;50.192;10.064;2023-07-29T13:47:28;28.20;70.60
12164;DHT22;6145;50.192;10.064;2023-07-29T13:49:55;28.40;69.70
12164;DHT22;6145;50.192;10.064;2023-07-29T13:52:22;28.60;70.10
12164;DHT22;6145;50.192;10.064;2023-07-29T13:54:49;28.10;70.70
12164;DHT22;6145;50.192;10.064;2023-07-29T13:57:15;28.00;70.70
12164;DHT22;6145;50.192;10.064;2023-07-29T13:59:44;27.80;71.40
12164;DHT22;6145;50.192;10.064;2023-07-29T14:02:11;27.90;71.30
12164;DHT22;6145;50.192;10.064;2023-07-29T14:04:38;27.70;70.10
12164;DHT22;6145;50.192;10.064;2023-07-29T14:07:04;27.60;71.30
12164;DHT22;6145;50.192;10.064;2023-07-29T14:09:31;27.60;71.60
12164;DHT22;6145;50.192;10.064;2023-07-29T14:11:58;27.50;72.90
12164;DHT22;6145;50.192;10.064;2023-07-29T14:14:25;27.40;73.10
12164;DHT22;6145;50.192;10.064;2023-07-29T14:16:54;27.40;72.80
12164;DHT22;6145;50.192;10.064;2023-07-29T14:19:38;27.40;73.50
12164;DHT22;6145;50.192;10.064;2023-07-29T14:22:06;27.40;73.40
12164;DHT22;6145;50.192;10.064;2023-07-29T14:24:32;27.50;74.60
12164;DHT22;6145;50.192;10.064;2023-07-29T14:26:59;27.50;74.60
12164;DHT22;6145;50.192;10.064;2023-07-29T14:29:26;27.50;72.20
12164;DHT22;6145;50.192;10.064;2023-07-29T14:32:01;27.50;71.60
12164;DHT22;6145;50.192;10.064;2023-07-29T14:34:28;27.60;72.10
12164;DHT22;6145;50.192;10.064;2023-07-29T14:36:55;27.50;72.80
12164;DHT22;6145;50.192;10.064;2023-07-29T14:39:22;27.80;72.70
12164;DHT22;6145;50.192;10.064;2023-07-29T14:41:49;27.90;71.50
12164;DHT22;6145;50.192;10.064;2023-07-29T14:44:16;28.20;72.90
12164;DHT22;6145;50.192;10.064;2023-07-29T14:46:43;28.10;70.10
12164;DHT22;6145;50.192;10.064;2023-07-29T14:49:22;28.60;71.90
12164;DHT22;6145;50.192;10.064;2023-07-29T14:51:52;28.40;72.90
12164;DHT22;6145;50.192;10.064;2023-07-29T14:57:09;29.00;72.20
12164;DHT22;6145;50.192;10.064;2023-07-29T14:59:40;28.60;70.80
12164;DHT22;6145;50.192;10.064;2023-07-29T15:02:11;28.60;68.70
12164;DHT22;6145;50.192;10.064;2023-07-29T15:04:39;28.80;67.90
12164;DHT22;6145;50.192;10.064;2023-07-29T15:07:06;28.50;68.70
12164;DHT22;6145;50.192;10.064;2023-07-29T15:09:35;28.50;69.00
12164;DHT22;6145;50.192;10.064;2023-07-29T15:12:23;28.40;69.50
12164;DHT22;6145;50.192;10.064;2023-07-29T15:15:34;28.80;69.70
12164;DHT22;6145;50.192;10.064;2023-07-29T15:17:50;28.50;70.50
12164;DHT22;6145;50.192;10.064;2023-07-29T15:20:38;28.10;70.30
12164;DHT22;6145;50.192;10.064;2023-07-29T15:23:20;28.40;69.70
12164;DHT22;6145;50.192;10.064;2023-07-29T15:26:09;28.30;69.80
12164;DHT22;6145;50.192;10.064;2023-07-29T15:29:03;28.30;70.40
12164;DHT22;6145;50.192;10.064;2023-07-29T15:31:33;28.20;70.60
12164;DHT22;6145;50.192;10.064;2023-07-29T15:34:33;28.30;71.40
12164;DHT22;6145;50.192;10.064;2023-07-29T15:37:05;28.30;70.20
12164;DHT22;6145;50.192;10.064;2023-07-29T15:39:38;28.30;71.80
12164;DHT22;6145;50.192;10.064;2023-07-29T15:42:07;28.60;70.90
12164;DHT22;6145;50.192;10.064;2023-07-29T15:44:39;28.40;71.80
12164;DHT22;6145;50.192;10.064;2023-07-29T15:47:06;28.40;71.00
12164;DHT22;6145;50.192;10.064;2023-07-29T15:49:33;28.40;70.30
12164;DHT22;6145;50.192;10.064;2023-07-29T15:52:03;28.40;70.90
12164;DHT22;6145;50.192;10.064;2023-07-29T15:54:37;28.40;71.10
12164;DHT22;6145;50.192;10.064;2023-07-29T15:57:09;28.40;70.50
12164;DHT22;6145;50.192;10.064;2023-07-29T15:59:57;28.10;70.70
12164;DHT22;6145;50.192;10.064;2023-07-29T16:02:28;28.30;70.30
12164;DHT22;6145;50.192;10.064;2023-07-29T16:04:55;28.20;70.70
12164;DHT22;6145;50.192;10.064;2023-07-29T16:07:23;28.80;71.40
12164;DHT22;6145;50.192;10.064;2023-07-29T16:09:53;28.20;71.30
12164;DHT22;6145;50.192;10.064;2023-07-29T16:12:20;28.10;71.30
12164;DHT22;6145;50.192;10.064;2023-07-29T16:14:48;28.10;71.70
12164;DHT22;6145;50.192;10.064;2023-07-29T16:17:16;28.30;70.70
12164;DHT22;6145;50.192;10.064;2023-07-29T16:19:57;28.00;70.70
12164;DHT22;6145;50.192;10.064;2023-07-29T16:22:27;28.90;71.30
12164;DHT22;6145;50.192;10.064;2023-07-29T16:24:57;28.10;71.10
12164;DHT22;6145;50.192;10.064;2023-07-29T16:27:24;28.10;70.70
12164;DHT22;6145;50.192;10.064;2023-07-29T16:29:51;28.10;71.60
12164;DHT22;6145;50.192;10.064;2023-07-29T16:32:18;28.10;71.10
12164;DHT22;6145;50.192;10.064;2023-07-29T16:34:46;28.00;69.80
12164;DHT22;6145;50.192;10.064;2023-07-29T16:37:13;28.00;71.60
12164;DHT22;6145;50.192;10.064;2023-07-29T16:39:52;28.10;72.00
12164;DHT22;6145;50.192;10.064;2023-07-29T16:42:19;27.90;72.10
12164;DHT22;6145;50.192;10.064;2023-07-29T16:44:45;27.80;72.50
12164;DHT22;6145;50.192;10.064;2023-07-29T16:47:12;27.70;72.70
12164;DHT22;6145;50.192;10.064;2023-07-29T16:49:39;27.70;72.00
12164;DHT22;6145;50.192;10.064;2023-07-29T16:52:06;27.60;71.50
12164;DHT22;6145;50.192;10.064;2023-07-29T16:54:33;27.60;71.00
12164;DHT22;6145;50.192;10.064;2023-07-29T16:57:01;27.40;71.20
12164;DHT22;6145;50.192;10.064;2023-07-29T16:59:28;27.40;71.30
12164;DHT22;6145;50.192;10.064;2023-07-29T17:01:55;27.30;72.90
12164;DHT22;6145;50.192;10.064;2023-07-29T17:04:21;27.30;73.50
12164;DHT22;6145;50.192;10.064;2023-07-29T17:06:49;27.10;73.10
12164;DHT22;6145;50.192;10.064;2023-07-29T17:09:16;27.10;71.90
12164;DHT22;6145;50.192;10.064;2023-07-29T17:11:44;27.10;70.70
12164;DHT22;6145;50.192;10.064;2023-07-29T17:20:25;26.50;68.90
12164;DHT22;6145;50.192;10.064;2023-07-29T17:23:21;26.40;70.40
12164;DHT22;6145;50.192;10.064;2023-07-29T17:25:57;26.20;68.50
12164;DHT22;6145;50.192;10.064;2023-07-29T17:31:27;26.60;70.80
12164;DHT22;6145;50.192;10.064;2023-07-29T17:34:07;25.90;69.80
12164;DHT22;6145;50.192;10.064;2023-07-29T17:36:51;25.80;70.30
12164;DHT22;6145;50.192;10.064;2023-07-29T17:39:23;25.70;69.50
12164;DHT22;6145;50.192;10.064;2023-07-29T17:42:01;25.90;69.60
12164;DHT22;6145;50.192;10.064;2023-07-29T17:44:44;25.60;69.90
12164;DHT22;6145;50.192;10.064;2023-07-29T17:47:40;25.30;70.90
12164;DHT22;6145;50.192;10.064;2023-07-29T17:50:33;25.30;71.50
12164;DHT22;6145;50.192;10.064;2023-07-29T17:53:46;25.50;71.20
12164;DHT22;6145;50.192;10.064;2023-07-29T17:56:22;25.40;71.80
12164;DHT22;6145;50.192;10.064;2023-07-29T17:59:02;25.20;72.60
12164;DHT22;6145;50.192;10.064;2023-07-29T18:01:29;25.20;73.40
12164;DHT22;6145;50.192;10.064;2023-07-29T18:05:05;25.20;73.30
12164;DHT22;6145;50.192;10.064;2023-07-29T18:22:50;24.90;74.50
12164;DHT22;6145;50.192;10.064;2023-07-29T21:39:13;20.80;83.00
12164;DHT22;6145;50.192;10.064;2023-07-29T21:41:47;20.70;83.10
12164;DHT22;6145;50.192;10.064;2023-07-29T21:44:20;20.70;83.30
12164;DHT22;6145;50.192;10.064;2023-07-29T21:46:50;20.70;83.50
12164;DHT22;6145;50.192;10.064;2023-07-29T21:49:17;20.70;83.70
12164;DHT22;6145;50.192;10.064;2023-07-29T21:51:55;20.70;83.90
12164;DHT22;6145;50.192;10.064;2023-07-29T21:54:31;20.60;84.20
12164;DHT22;6145;50.192;10.064;2023-07-29T21:56:58;20.60;83.90
12164;DHT22;6145;50.192;10.064;2023-07-29T21:59:25;20.50;83.80
12164;DHT22;6145;50.192;10.064;2023-07-29T22:01:52;20.80;84.10
12164;DHT22;6145;50.192;10.064;2023-07-29T22:04:19;20.40;83.90
12164;DHT22;6145;50.192;10.064;2023-07-29T22:06:47;20.30;84.20
12164;DHT22;6145;50.192;10.064;2023-07-29T22:09:14;20.30;84.60
12164;DHT22;6145;50.192;10.064;2023-07-29T22:11:50;20.30;84.60
12164;DHT22;6145;50.192;10.064;2023-07-29T22:14:17;19.10;83.90
12164;DHT22;6145;50.192;10.064;2023-07-29T22:16:51;20.30;85.00
12164;DHT22;6145;50.192;10.064;2023-07-29T22:19:27;20.30;85.10
12164;DHT22;6145;50.192;10.064;2023-07-29T22:22:00;20.20;85.60
12164;DHT22;6145;50.192;10.064;2023-07-29T22:24:35;20.30;85.50
12164;DHT22;6145;50.192;10.064;2023-07-29T22:27:07;21.20;86.50
12164;DHT22;6145;50.192;10.064;2023-07-29T22:29:37;20.20;85.70
12164;DHT22;6145;50.192;10.064;2023-07-29T22:32:10;20.10;85.40
12164;DHT22;6145;50.192;10.064;2023-07-29T22:34:45;20.20;85.90
12164;DHT22;6145;50.192;10.064;2023-07-29T22:37:12;20.20;85.90
12164;DHT22;6145;50.192;10.064;2023-07-29T22:39:39;20.20;85.80
12164;DHT22;6145;50.192;10.064;2023-07-29T22:42:18;20.20;85.80
12164;DHT22;6145;50.192;10.064;2023-07-29T22:44:54;20.10;85.70
12164;DHT22;6145;50.192;10.064;2023-07-29T22:47:21;18.60;84.50
12164;DHT22;6145;50.192;10.064;2023-07-29T22:50:02;20.10;85.90
12164;DHT22;6145;50.192;10.064;2023-07-29T22:52:32;20.10;86.60
12164;DHT22;6145;50.192;10.064;2023-07-29T22:55:02;20.00;86.20
12164;DHT22;6145;50.192;10.064;2023-07-29T22:57:31;20.10;86.60
12164;DHT22;6145;50.192;10.064;2023-07-29T23:00:18;20.60;87.20
12164;DHT22;6145;50.192;10.064;2023-07-29T23:02:45;20.00;87.20
12164;DHT22;6145;50.192;10.064;2023-07-29T23:05:15;20.00;87.20
12164;DHT22;6145;50.192;10.064;2023-07-29T23:07:42;20.00;87.70
12164;DHT22;6145;50.192;10.064;2023-07-29T23:10:11;20.90;88.60
12164;DHT22;6145;50.192;10.064;2023-07-29T23:12:39;20.00;87.60
12164;DHT22;6145;50.192;10.064;2023-07-29T23:15:08;21.10;88.80
12164;DHT22;6145;50.192;10.064;2023-07-29T23:17:38;19.70;87.60
12164;DHT22;6145;50.192;10.064;2023-07-29T23:20:08;19.90;87.90
12164;DHT22;6145;50.192;10.064;2023-07-29T23:22:38;19.80;88.50
12164;DHT22;6145;50.192;10.064;2023-07-29T23:25:06;19.80;89.20
12164;DHT22;6145;50.192;10.064;2023-07-29T23:27:42;19.80;89.60
12164;DHT22;6145;50.192;10.064;2023-07-29T23:30:09;19.70;90.10